LFSO

Nancy-Ochey (BA 133) Air Base

Airport
ICAO code
LFSO
Summary
ICAO Region
EUR
ICAO Territory
Location

, Lorraine

Serving
Nancy
Elevation
1106 ft
Coordinates
48° 34' 59" N , 5° 57' 18" E
Metar
Observation
LFSO 012300Z AUTO 06006KT 9999 OVC027 03/01 Q1022
Station
Nancy / Ochey
Date/Time
2022-12-01 23:00:00
Wind direction
60°
Wind speed
06 kts
Lowest cloud amount
overcast
Temperature
3°C
Dew point
1°C
Humidity
86%
QNH
1022 hPa
Weather condition
n/a

Runways

Designator Length Width Surface Rops
2/20 2401 45 CON No/No

Airport map

Aerial View

SKYbrary Partners:

Safety knowledge contributed by: